Terminal Aerodrome Forecast
Issued by NWS Jackson, KY

Home | Current Version | Previous Version | Text Only | Print | Product List | Glossary On
Versions: 1 2 3 4 5 6 7 8 9 10 11 12 13 14 15 16 17 18
665
FTUS43 KJKL 022323
TAFJKL
TAF
KJKL 022323Z 0300/0324 17006KT P6SM BKN100
     FM030400 18013G26KT P6SM VCSH OVC080
     FM030800 19015G30KT 2SM +SHRA VCTS OVC015CB
     FM031100 21010G20KT 3SM SHRA OVC009
     FM031500 23010KT 3SM -SHRA BKN030
     FM031700 23012G17KT P6SM SCT035=

USA.gov is the U.S. government's official web portal to all federal, state and local government web resources and services.